sensor_id;sensor_type;location;lat;lon;timestamp;P1;durP1;ratioP1;P2;durP2;ratioP2
15516;SDS011;7860;52.030;5.572;2022-07-11T00:03:04;11.85;;;3.34;;
15516;SDS011;7860;52.030;5.572;2022-07-11T00:03:05;10.42;;;3.19;;
15516;SDS011;7860;52.030;5.572;2022-07-11T00:03:09;8.19;;;3.39;;
15516;SDS011;7860;52.030;5.572;2022-07-11T00:03:09;8.05;;;2.72;;
15516;SDS011;7860;52.030;5.572;2022-07-11T00:04:09;10.07;;;3.35;;
15516;SDS011;7860;52.030;5.572;2022-07-11T00:05:09;10.02;;;3.51;;
15516;SDS011;7860;52.030;5.572;2022-07-11T00:06:09;9.63;;;3.36;;
15516;SDS011;7860;52.030;5.572;2022-07-11T00:07:09;10.78;;;3.35;;
15516;SDS011;7860;52.030;5.572;2022-07-11T00:08:09;9.10;;;3.15;;
15516;SDS011;7860;52.030;5.572;2022-07-11T00:09:09;9.90;;;3.00;;
15516;SDS011;7860;52.030;5.572;2022-07-11T00:10:09;9.96;;;3.16;;
15516;SDS011;7860;52.030;5.572;2022-07-11T00:11:09;10.11;;;3.40;;
15516;SDS011;7860;52.030;5.572;2022-07-11T00:12:10;10.30;;;3.37;;
15516;SDS011;7860;52.030;5.572;2022-07-11T00:13:09;10.27;;;3.66;;
15516;SDS011;7860;52.030;5.572;2022-07-11T00:14:10;8.95;;;3.40;;
15516;SDS011;7860;52.030;5.572;2022-07-11T00:15:10;9.69;;;3.35;;
15516;SDS011;7860;52.030;5.572;2022-07-11T00:16:10;8.38;;;3.16;;
15516;SDS011;7860;52.030;5.572;2022-07-11T00:17:10;11.13;;;3.31;;
15516;SDS011;7860;52.030;5.572;2022-07-11T00:18:10;10.85;;;3.11;;
15516;SDS011;7860;52.030;5.572;2022-07-11T00:19:10;10.04;;;3.18;;
15516;SDS011;7860;52.030;5.572;2022-07-11T00:20:10;9.12;;;3.21;;
15516;SDS011;7860;52.030;5.572;2022-07-11T00:21:10;9.17;;;2.99;;
15516;SDS011;7860;52.030;5.572;2022-07-11T00:22:10;9.37;;;3.26;;
15516;SDS011;7860;52.030;5.572;2022-07-11T00:23:10;9.99;;;3.58;;
15516;SDS011;7860;52.030;5.572;2022-07-11T00:24:10;10.58;;;3.47;;
15516;SDS011;7860;52.030;5.572;2022-07-11T00:25:10;9.82;;;3.28;;
15516;SDS011;7860;52.030;5.572;2022-07-11T00:26:10;8.48;;;2.90;;
15516;SDS011;7860;52.030;5.572;2022-07-11T00:27:10;9.63;;;3.23;;
15516;SDS011;7860;52.030;5.572;2022-07-11T00:28:10;12.03;;;3.88;;
15516;SDS011;7860;52.030;5.572;2022-07-11T00:29:10;9.32;;;3.33;;
15516;SDS011;7860;52.030;5.572;2022-07-11T00:30:11;8.89;;;3.00;;
15516;SDS011;7860;52.030;5.572;2022-07-11T00:31:11;10.26;;;3.25;;
15516;SDS011;7860;52.030;5.572;2022-07-11T00:32:11;9.17;;;3.22;;
15516;SDS011;7860;52.030;5.572;2022-07-11T00:33:14;10.01;;;3.32;;
15516;SDS011;7860;52.030;5.572;2022-07-11T00:34:11;10.50;;;3.11;;
15516;SDS011;7860;52.030;5.572;2022-07-11T00:35:11;10.41;;;3.02;;
15516;SDS011;7860;52.030;5.572;2022-07-11T00:36:11;8.90;;;2.63;;
15516;SDS011;7860;52.030;5.572;2022-07-11T00:37:12;8.99;;;2.95;;
15516;SDS011;7860;52.030;5.572;2022-07-11T00:38:12;9.69;;;3.25;;
15516;SDS011;7860;52.030;5.572;2022-07-11T00:39:12;12.53;;;3.24;;
15516;SDS011;7860;52.030;5.572;2022-07-11T00:40:12;10.30;;;3.20;;
15516;SDS011;7860;52.030;5.572;2022-07-11T00:41:12;10.28;;;2.91;;
15516;SDS011;7860;52.030;5.572;2022-07-11T00:42:15;9.77;;;3.05;;
15516;SDS011;7860;52.030;5.572;2022-07-11T00:43:12;10.43;;;2.87;;
15516;SDS011;7860;52.030;5.572;2022-07-11T00:44:12;8.83;;;2.89;;
15516;SDS011;7860;52.030;5.572;2022-07-11T00:45:12;9.64;;;2.86;;
15516;SDS011;7860;52.030;5.572;2022-07-11T00:46:13;9.16;;;2.96;;
15516;SDS011;7860;52.030;5.572;2022-07-11T00:47:13;9.52;;;3.06;;
15516;SDS011;7860;52.030;5.572;2022-07-11T00:48:13;8.56;;;2.97;;
15516;SDS011;7860;52.030;5.572;2022-07-11T00:49:13;9.53;;;2.86;;
15516;SDS011;7860;52.030;5.572;2022-07-11T00:50:13;10.05;;;3.05;;
15516;SDS011;7860;52.030;5.572;2022-07-11T00:51:13;10.89;;;2.82;;
15516;SDS011;7860;52.030;5.572;2022-07-11T00:52:13;9.26;;;2.90;;
15516;SDS011;7860;52.030;5.572;2022-07-11T00:53:13;10.16;;;3.01;;
15516;SDS011;7860;52.030;5.572;2022-07-11T00:54:13;9.77;;;3.07;;
15516;SDS011;7860;52.030;5.572;2022-07-11T00:55:13;8.87;;;2.96;;
15516;SDS011;7860;52.030;5.572;2022-07-11T00:56:13;9.21;;;2.92;;
15516;SDS011;7860;52.030;5.572;2022-07-11T00:57:13;7.42;;;2.70;;
15516;SDS011;7860;52.030;5.572;2022-07-11T00:58:13;8.86;;;2.83;;
15516;SDS011;7860;52.030;5.572;2022-07-11T00:59:13;8.25;;;2.83;;
15516;SDS011;7860;52.030;5.572;2022-07-11T01:00:13;9.32;;;2.72;;
15516;SDS011;7860;52.030;5.572;2022-07-11T01:01:14;9.79;;;2.83;;
15516;SDS011;7860;52.030;5.572;2022-07-11T01:02:14;8.63;;;2.76;;
15516;SDS011;7860;52.030;5.572;2022-07-11T01:03:14;8.87;;;3.11;;
15516;SDS011;7860;52.030;5.572;2022-07-11T01:04:14;8.36;;;3.16;;
15516;SDS011;7860;52.030;5.572;2022-07-11T01:05:14;10.58;;;2.98;;
15516;SDS011;7860;52.030;5.572;2022-07-11T01:06:14;9.16;;;3.42;;
15516;SDS011;7860;52.030;5.572;2022-07-11T01:07:14;9.11;;;3.10;;
15516;SDS011;7860;52.030;5.572;2022-07-11T01:08:14;9.76;;;3.11;;
15516;SDS011;7860;52.030;5.572;2022-07-11T01:09:14;8.15;;;3.03;;
15516;SDS011;7860;52.030;5.572;2022-07-11T01:10:14;9.28;;;3.03;;
15516;SDS011;7860;52.030;5.572;2022-07-11T01:11:14;11.01;;;3.06;;
15516;SDS011;7860;52.030;5.572;2022-07-11T01:12:14;10.61;;;3.02;;
15516;SDS011;7860;52.030;5.572;2022-07-11T01:13:14;7.46;;;3.03;;
15516;SDS011;7860;52.030;5.572;2022-07-11T01:14:15;9.38;;;2.93;;
15516;SDS011;7860;52.030;5.572;2022-07-11T01:15:14;8.64;;;2.90;;
15516;SDS011;7860;52.030;5.572;2022-07-11T01:16:15;9.66;;;2.52;;
15516;SDS011;7860;52.030;5.572;2022-07-11T01:17:15;9.78;;;2.68;;
15516;SDS011;7860;52.030;5.572;2022-07-11T01:18:15;7.91;;;2.83;;
15516;SDS011;7860;52.030;5.572;2022-07-11T01:19:15;8.89;;;2.97;;
15516;SDS011;7860;52.030;5.572;2022-07-11T01:20:15;8.45;;;2.70;;
15516;SDS011;7860;52.030;5.572;2022-07-11T01:21:17;8.01;;;2.69;;
15516;SDS011;7860;52.030;5.572;2022-07-11T01:22:15;8.10;;;2.60;;
15516;SDS011;7860;52.030;5.572;2022-07-11T01:23:16;8.99;;;2.95;;
15516;SDS011;7860;52.030;5.572;2022-07-11T01:24:16;8.26;;;2.82;;
15516;SDS011;7860;52.030;5.572;2022-07-11T01:25:17;9.51;;;2.96;;
15516;SDS011;7860;52.030;5.572;2022-07-11T01:26:16;8.54;;;2.84;;
15516;SDS011;7860;52.030;5.572;2022-07-11T01:27:16;8.75;;;2.81;;
15516;SDS011;7860;52.030;5.572;2022-07-11T01:28:16;9.93;;;3.18;;
15516;SDS011;7860;52.030;5.572;2022-07-11T01:29:16;9.57;;;3.03;;
15516;SDS011;7860;52.030;5.572;2022-07-11T01:30:16;8.00;;;2.93;;
15516;SDS011;7860;52.030;5.572;2022-07-11T01:31:17;8.54;;;2.89;;
15516;SDS011;7860;52.030;5.572;2022-07-11T01:32:17;8.69;;;2.98;;
15516;SDS011;7860;52.030;5.572;2022-07-11T01:33:17;8.88;;;2.65;;
15516;SDS011;7860;52.030;5.572;2022-07-11T01:34:17;7.64;;;2.69;;
15516;SDS011;7860;52.030;5.572;2022-07-11T01:35:17;9.37;;;3.12;;
15516;SDS011;7860;52.030;5.572;2022-07-11T01:36:17;9.97;;;2.99;;
15516;SDS011;7860;52.030;5.572;2022-07-11T01:37:17;7.79;;;2.74;;
15516;SDS011;7860;52.030;5.572;2022-07-11T01:38:17;8.47;;;3.07;;
15516;SDS011;7860;52.030;5.572;2022-07-11T01:39:17;8.64;;;2.95;;
15516;SDS011;7860;52.030;5.572;2022-07-11T01:40:17;7.48;;;2.58;;
15516;SDS011;7860;52.030;5.572;2022-07-11T01:41:17;10.15;;;2.93;;
15516;SDS011;7860;52.030;5.572;2022-07-11T01:42:17;7.75;;;3.00;;
15516;SDS011;7860;52.030;5.572;2022-07-11T01:43:17;8.04;;;2.61;;
15516;SDS011;7860;52.030;5.572;2022-07-11T01:44:17;7.66;;;2.64;;
15516;SDS011;7860;52.030;5.572;2022-07-11T01:45:17;8.66;;;2.59;;
15516;SDS011;7860;52.030;5.572;2022-07-11T01:46:18;9.99;;;2.72;;
15516;SDS011;7860;52.030;5.572;2022-07-11T01:47:18;7.61;;;2.66;;
15516;SDS011;7860;52.030;5.572;2022-07-11T01:48:18;10.73;;;2.90;;
15516;SDS011;7860;52.030;5.572;2022-07-11T01:49:18;8.45;;;2.59;;
15516;SDS011;7860;52.030;5.572;2022-07-11T01:50:18;7.55;;;2.66;;
15516;SDS011;7860;52.030;5.572;2022-07-11T01:51:18;8.73;;;2.89;;
15516;SDS011;7860;52.030;5.572;2022-07-11T01:52:18;9.03;;;3.06;;
15516;SDS011;7860;52.030;5.572;2022-07-11T01:53:18;7.30;;;2.77;;
15516;SDS011;7860;52.030;5.572;2022-07-11T01:54:18;7.80;;;2.81;;
15516;SDS011;7860;52.030;5.572;2022-07-11T01:55:18;7.93;;;2.57;;
15516;SDS011;7860;52.030;5.572;2022-07-11T01:56:18;9.08;;;3.04;;
15516;SDS011;7860;52.030;5.572;2022-07-11T01:57:18;6.75;;;2.72;;
15516;SDS011;7860;52.030;5.572;2022-07-11T01:58:18;8.36;;;2.92;;
15516;SDS011;7860;52.030;5.572;2022-07-11T01:59:18;8.28;;;2.95;;
15516;SDS011;7860;52.030;5.572;2022-07-11T02:00:18;8.54;;;2.81;;
15516;SDS011;7860;52.030;5.572;2022-07-11T02:01:18;7.52;;;2.85;;
15516;SDS011;7860;52.030;5.572;2022-07-11T02:02:18;6.61;;;2.58;;
15516;SDS011;7860;52.030;5.572;2022-07-11T02:03:18;7.70;;;2.61;;
15516;SDS011;7860;52.030;5.572;2022-07-11T02:04:18;6.43;;;2.78;;
15516;SDS011;7860;52.030;5.572;2022-07-11T02:05:19;8.85;;;2.67;;
15516;SDS011;7860;52.030;5.572;2022-07-11T02:06:19;6.70;;;2.61;;
15516;SDS011;7860;52.030;5.572;2022-07-11T02:07:19;8.48;;;2.65;;
15516;SDS011;7860;52.030;5.572;2022-07-11T02:08:19;6.87;;;2.51;;
15516;SDS011;7860;52.030;5.572;2022-07-11T02:09:19;7.27;;;2.52;;
15516;SDS011;7860;52.030;5.572;2022-07-11T02:10:19;6.14;;;2.57;;
15516;SDS011;7860;52.030;5.572;2022-07-11T02:11:19;6.47;;;2.38;;
15516;SDS011;7860;52.030;5.572;2022-07-11T02:12:19;6.69;;;2.41;;
15516;SDS011;7860;52.030;5.572;2022-07-11T02:13:19;7.01;;;2.38;;
15516;SDS011;7860;52.030;5.572;2022-07-11T02:14:19;5.28;;;2.25;;
15516;SDS011;7860;52.030;5.572;2022-07-11T02:15:19;4.31;;;1.90;;
15516;SDS011;7860;52.030;5.572;2022-07-11T02:16:19;7.09;;;2.56;;
15516;SDS011;7860;52.030;5.572;2022-07-11T02:17:19;5.81;;;2.45;;
15516;SDS011;7860;52.030;5.572;2022-07-11T02:18:19;7.05;;;2.47;;
15516;SDS011;7860;52.030;5.572;2022-07-11T02:19:19;6.32;;;2.15;;
15516;SDS011;7860;52.030;5.572;2022-07-11T02:20:20;6.10;;;2.21;;
15516;SDS011;7860;52.030;5.572;2022-07-11T02:21:19;5.83;;;2.27;;
15516;SDS011;7860;52.030;5.572;2022-07-11T02:22:19;7.83;;;2.29;;
15516;SDS011;7860;52.030;5.572;2022-07-11T02:23:20;6.52;;;2.34;;
15516;SDS011;7860;52.030;5.572;2022-07-11T02:24:20;6.63;;;2.28;;
15516;SDS011;7860;52.030;5.572;2022-07-11T02:25:20;6.39;;;2.07;;
15516;SDS011;7860;52.030;5.572;2022-07-11T02:26:20;5.65;;;1.97;;
15516;SDS011;7860;52.030;5.572;2022-07-11T02:27:20;5.46;;;2.00;;
15516;SDS011;7860;52.030;5.572;2022-07-11T02:28:20;5.75;;;1.86;;
15516;SDS011;7860;52.030;5.572;2022-07-11T02:29:20;5.47;;;2.20;;
15516;SDS011;7860;52.030;5.572;2022-07-11T02:30:20;5.98;;;1.75;;
15516;SDS011;7860;52.030;5.572;2022-07-11T02:31:20;4.16;;;1.92;;
15516;SDS011;7860;52.030;5.572;2022-07-11T02:32:20;4.09;;;1.73;;
15516;SDS011;7860;52.030;5.572;2022-07-11T02:33:20;5.69;;;1.80;;
15516;SDS011;7860;52.030;5.572;2022-07-11T02:34:20;3.84;;;1.79;;
15516;SDS011;7860;52.030;5.572;2022-07-11T02:35:20;3.47;;;1.71;;
15516;SDS011;7860;52.030;5.572;2022-07-11T02:36:20;3.87;;;1.53;;
15516;SDS011;7860;52.030;5.572;2022-07-11T02:37:20;4.96;;;1.85;;
15516;SDS011;7860;52.030;5.572;2022-07-11T02:38:20;5.88;;;1.71;;
15516;SDS011;7860;52.030;5.572;2022-07-11T02:39:20;3.44;;;1.83;;
15516;SDS011;7860;52.030;5.572;2022-07-11T02:40:21;5.24;;;1.74;;
15516;SDS011;7860;52.030;5.572;2022-07-11T02:41:21;3.68;;;1.52;;
15516;SDS011;7860;52.030;5.572;2022-07-11T02:42:21;5.22;;;1.79;;
15516;SDS011;7860;52.030;5.572;2022-07-11T02:43:21;5.57;;;2.04;;
15516;SDS011;7860;52.030;5.572;2022-07-11T02:44:21;3.80;;;1.75;;
15516;SDS011;7860;52.030;5.572;2022-07-11T02:45:21;4.52;;;1.73;;
15516;SDS011;7860;52.030;5.572;2022-07-11T02:46:21;3.54;;;1.71;;
15516;SDS011;7860;52.030;5.572;2022-07-11T02:47:21;4.40;;;1.94;;
15516;SDS011;7860;52.030;5.572;2022-07-11T02:48:21;4.06;;;1.71;;
15516;SDS011;7860;52.030;5.572;2022-07-11T02:49:21;4.28;;;1.61;;
15516;SDS011;7860;52.030;5.572;2022-07-11T02:50:21;3.86;;;1.84;;
15516;SDS011;7860;52.030;5.572;2022-07-11T02:51:21;4.46;;;1.98;;
15516;SDS011;7860;52.030;5.572;2022-07-11T02:52:21;4.14;;;1.71;;
15516;SDS011;7860;52.030;5.572;2022-07-11T02:53:21;4.50;;;1.76;;
15516;SDS011;7860;52.030;5.572;2022-07-11T02:54:21;3.22;;;1.65;;
15516;SDS011;7860;52.030;5.572;2022-07-11T02:55:21;3.37;;;1.79;;
15516;SDS011;7860;52.030;5.572;2022-07-11T02:56:21;3.79;;;1.63;;
15516;SDS011;7860;52.030;5.572;2022-07-11T02:57:22;4.86;;;1.86;;
15516;SDS011;7860;52.030;5.572;2022-07-11T02:58:22;3.84;;;1.59;;
15516;SDS011;7860;52.030;5.572;2022-07-11T02:59:22;4.57;;;1.59;;
15516;SDS011;7860;52.030;5.572;2022-07-11T03:00:22;3.43;;;1.70;;
15516;SDS011;7860;52.030;5.572;2022-07-11T03:01:22;3.50;;;1.71;;
15516;SDS011;7860;52.030;5.572;2022-07-11T03:02:22;5.24;;;1.75;;
15516;SDS011;7860;52.030;5.572;2022-07-11T03:03:22;4.04;;;1.70;;
15516;SDS011;7860;52.030;5.572;2022-07-11T03:04:22;3.36;;;1.52;;
15516;SDS011;7860;52.030;5.572;2022-07-11T03:05:22;4.22;;;1.84;;
15516;SDS011;7860;52.030;5.572;2022-07-11T03:06:22;3.98;;;1.68;;
15516;SDS011;7860;52.030;5.572;2022-07-11T03:07:23;4.45;;;1.77;;
15516;SDS011;7860;52.030;5.572;2022-07-11T03:08:23;2.69;;;1.52;;
15516;SDS011;7860;52.030;5.572;2022-07-11T03:09:23;3.68;;;1.64;;
15516;SDS011;7860;52.030;5.572;2022-07-11T03:10:23;3.93;;;1.74;;
15516;SDS011;7860;52.030;5.572;2022-07-11T03:11:24;3.88;;;1.70;;
15516;SDS011;7860;52.030;5.572;2022-07-11T03:12:24;4.03;;;1.72;;
15516;SDS011;7860;52.030;5.572;2022-07-11T03:13:24;6.26;;;1.85;;
15516;SDS011;7860;52.030;5.572;2022-07-11T03:14:24;3.74;;;1.88;;
15516;SDS011;7860;52.030;5.572;2022-07-11T03:15:24;3.82;;;1.61;;
15516;SDS011;7860;52.030;5.572;2022-07-11T03:16:24;4.66;;;1.91;;
15516;SDS011;7860;52.030;5.572;2022-07-11T03:17:24;3.60;;;1.70;;
15516;SDS011;7860;52.030;5.572;2022-07-11T03:18:24;3.45;;;1.61;;
15516;SDS011;7860;52.030;5.572;2022-07-11T03:19:24;4.08;;;1.69;;
15516;SDS011;7860;52.030;5.572;2022-07-11T03:20:24;4.60;;;1.78;;
15516;SDS011;7860;52.030;5.572;2022-07-11T03:21:24;4.67;;;1.78;;
15516;SDS011;7860;52.030;5.572;2022-07-11T03:22:24;5.25;;;1.98;;
15516;SDS011;7860;52.030;5.572;2022-07-11T03:23:24;3.84;;;1.73;;
15516;SDS011;7860;52.030;5.572;2022-07-11T03:24:24;2.99;;;1.72;;
15516;SDS011;7860;52.030;5.572;2022-07-11T03:25:24;4.18;;;1.76;;
15516;SDS011;7860;52.030;5.572;2022-07-11T03:26:25;4.60;;;1.94;;
15516;SDS011;7860;52.030;5.572;2022-07-11T03:27:25;3.61;;;1.71;;
15516;SDS011;7860;52.030;5.572;2022-07-11T03:28:25;3.79;;;1.82;;
15516;SDS011;7860;52.030;5.572;2022-07-11T03:29:25;4.49;;;1.66;;
15516;SDS011;7860;52.030;5.572;2022-07-11T03:30:25;4.93;;;1.82;;
15516;SDS011;7860;52.030;5.572;2022-07-11T03:31:25;3.32;;;1.62;;
15516;SDS011;7860;52.030;5.572;2022-07-11T03:32:25;6.01;;;1.88;;
15516;SDS011;7860;52.030;5.572;2022-07-11T03:33:25;3.36;;;1.53;;
15516;SDS011;7860;52.030;5.572;2022-07-11T03:34:25;2.94;;;1.54;;
15516;SDS011;7860;52.030;5.572;2022-07-11T03:35:25;3.77;;;1.60;;
15516;SDS011;7860;52.030;5.572;2022-07-11T03:36:25;4.11;;;1.76;;
15516;SDS011;7860;52.030;5.572;2022-07-11T03:37:25;3.72;;;1.73;;
15516;SDS011;7860;52.030;5.572;2022-07-11T03:38:25;3.75;;;1.67;;
15516;SDS011;7860;52.030;5.572;2022-07-11T03:39:25;3.98;;;1.76;;
15516;SDS011;7860;52.030;5.572;2022-07-11T03:40:25;3.62;;;1.74;;
15516;SDS011;7860;52.030;5.572;2022-07-11T03:41:25;3.29;;;1.60;;
15516;SDS011;7860;52.030;5.572;2022-07-11T03:42:26;4.94;;;1.79;;
15516;SDS011;7860;52.030;5.572;2022-07-11T03:43:26;3.94;;;1.63;;
15516;SDS011;7860;52.030;5.572;2022-07-11T03:44:26;3.75;;;1.68;;
15516;SDS011;7860;52.030;5.572;2022-07-11T03:45:26;4.53;;;1.93;;
15516;SDS011;7860;52.030;5.572;2022-07-11T03:46:26;4.95;;;1.87;;
15516;SDS011;7860;52.030;5.572;2022-07-11T03:47:26;3.93;;;1.99;;
15516;SDS011;7860;52.030;5.572;2022-07-11T03:48:26;4.32;;;1.88;;
15516;SDS011;7860;52.030;5.572;2022-07-11T03:49:26;5.60;;;2.10;;
15516;SDS011;7860;52.030;5.572;2022-07-11T03:50:26;3.85;;;1.80;;
15516;SDS011;7860;52.030;5.572;2022-07-11T03:51:26;5.62;;;2.08;;
15516;SDS011;7860;52.030;5.572;2022-07-11T03:52:26;5.51;;;2.25;;
15516;SDS011;7860;52.030;5.572;2022-07-11T03:53:26;5.57;;;2.00;;
15516;SDS011;7860;52.030;5.572;2022-07-11T03:54:26;5.01;;;2.05;;
15516;SDS011;7860;52.030;5.572;2022-07-11T03:55:26;3.39;;;1.98;;
15516;SDS011;7860;52.030;5.572;2022-07-11T03:56:26;4.70;;;1.92;;
15516;SDS011;7860;52.030;5.572;2022-07-11T03:57:26;4.57;;;1.99;;
15516;SDS011;7860;52.030;5.572;2022-07-11T03:58:27;4.84;;;2.19;;
15516;SDS011;7860;52.030;5.572;2022-07-11T03:59:27;5.55;;;2.08;;
15516;SDS011;7860;52.030;5.572;2022-07-11T04:00:27;4.63;;;2.09;;
15516;SDS011;7860;52.030;5.572;2022-07-11T04:01:27;6.69;;;2.30;;
15516;SDS011;7860;52.030;5.572;2022-07-11T04:02:27;5.60;;;2.30;;
15516;SDS011;7860;52.030;5.572;2022-07-11T04:03:27;5.48;;;2.23;;
15516;SDS011;7860;52.030;5.572;2022-07-11T04:04:27;5.63;;;2.05;;
15516;SDS011;7860;52.030;5.572;2022-07-11T04:05:27;5.02;;;2.28;;
15516;SDS011;7860;52.030;5.572;2022-07-11T04:06:27;7.14;;;2.63;;
15516;SDS011;7860;52.030;5.572;2022-07-11T04:07:27;6.98;;;2.56;;
15516;SDS011;7860;52.030;5.572;2022-07-11T04:08:27;5.93;;;2.44;;
15516;SDS011;7860;52.030;5.572;2022-07-11T04:09:27;5.89;;;2.35;;
15516;SDS011;7860;52.030;5.572;2022-07-11T04:10:27;6.50;;;2.58;;
15516;SDS011;7860;52.030;5.572;2022-07-11T04:11:27;8.68;;;2.73;;
15516;SDS011;7860;52.030;5.572;2022-07-11T04:12:27;8.56;;;2.63;;
15516;SDS011;7860;52.030;5.572;2022-07-11T04:13:28;7.68;;;2.88;;
15516;SDS011;7860;52.030;5.572;2022-07-11T04:14:27;6.99;;;2.72;;
15516;SDS011;7860;52.030;5.572;2022-07-11T04:15:27;7.13;;;2.75;;
15516;SDS011;7860;52.030;5.572;2022-07-11T04:16:28;7.87;;;2.59;;
15516;SDS011;7860;52.030;5.572;2022-07-11T04:17:28;7.54;;;2.65;;
15516;SDS011;7860;52.030;5.572;2022-07-11T04:18:28;7.96;;;2.83;;
15516;SDS011;7860;52.030;5.572;2022-07-11T04:19:28;7.40;;;2.85;;
15516;SDS011;7860;52.030;5.572;2022-07-11T04:20:28;6.90;;;2.68;;
15516;SDS011;7860;52.030;5.572;2022-07-11T04:21:28;7.74;;;2.69;;
15516;SDS011;7860;52.030;5.572;2022-07-11T04:22:28;8.11;;;3.00;;
15516;SDS011;7860;52.030;5.572;2022-07-11T04:23:28;5.21;;;2.53;;
15516;SDS011;7860;52.030;5.572;2022-07-11T04:24:28;6.68;;;2.84;;
15516;SDS011;7860;52.030;5.572;2022-07-11T04:25:28;7.09;;;2.49;;
15516;SDS011;7860;52.030;5.572;2022-07-11T04:26:28;7.56;;;2.40;;
15516;SDS011;7860;52.030;5.572;2022-07-11T04:27:28;5.66;;;2.55;;
15516;SDS011;7860;52.030;5.572;2022-07-11T04:28:28;8.81;;;2.61;;
15516;SDS011;7860;52.030;5.572;2022-07-11T04:29:28;6.59;;;2.71;;
15516;SDS011;7860;52.030;5.572;2022-07-11T04:30:28;6.88;;;2.55;;
15516;SDS011;7860;52.030;5.572;2022-07-11T04:31:28;6.88;;;2.64;;
15516;SDS011;7860;52.030;5.572;2022-07-11T04:32:28;5.00;;;2.50;;
15516;SDS011;7860;52.030;5.572;2022-07-11T04:33:28;6.16;;;2.56;;
15516;SDS011;7860;52.030;5.572;2022-07-11T04:34:29;5.64;;;2.49;;
15516;SDS011;7860;52.030;5.572;2022-07-11T04:35:30;7.78;;;2.72;;
15516;SDS011;7860;52.030;5.572;2022-07-11T04:36:30;8.57;;;2.62;;
15516;SDS011;7860;52.030;5.572;2022-07-11T04:37:30;6.78;;;2.86;;
15516;SDS011;7860;52.030;5.572;2022-07-11T04:38:30;7.00;;;2.76;;
15516;SDS011;7860;52.030;5.572;2022-07-11T04:39:30;7.04;;;2.70;;
15516;SDS011;7860;52.030;5.572;2022-07-11T04:40:30;8.39;;;2.67;;
15516;SDS011;7860;52.030;5.572;2022-07-11T04:41:31;6.66;;;2.62;;
15516;SDS011;7860;52.030;5.572;2022-07-11T04:42:31;7.75;;;3.12;;
15516;SDS011;7860;52.030;5.572;2022-07-11T04:43:31;6.92;;;2.94;;
15516;SDS011;7860;52.030;5.572;2022-07-11T04:44:31;7.53;;;2.94;;
15516;SDS011;7860;52.030;5.572;2022-07-11T04:45:31;7.42;;;3.01;;
15516;SDS011;7860;52.030;5.572;2022-07-11T04:46:31;8.96;;;3.09;;
15516;SDS011;7860;52.030;5.572;2022-07-11T04:47:31;8.02;;;3.06;;
15516;SDS011;7860;52.030;5.572;2022-07-11T04:48:31;7.05;;;2.86;;
15516;SDS011;7860;52.030;5.572;2022-07-11T04:49:31;9.61;;;3.28;;
15516;SDS011;7860;52.030;5.572;2022-07-11T04:50:31;8.93;;;3.53;;
15516;SDS011;7860;52.030;5.572;2022-07-11T04:51:32;8.19;;;3.28;;
15516;SDS011;7860;52.030;5.572;2022-07-11T04:52:32;11.20;;;3.13;;
15516;SDS011;7860;52.030;5.572;2022-07-11T04:53:32;11.64;;;3.50;;
15516;SDS011;7860;52.030;5.572;2022-07-11T04:54:32;10.00;;;3.42;;
15516;SDS011;7860;52.030;5.572;2022-07-11T04:55:32;9.77;;;3.60;;
15516;SDS011;7860;52.030;5.572;2022-07-11T04:56:32;9.04;;;3.52;;
15516;SDS011;7860;52.030;5.572;2022-07-11T04:57:32;9.58;;;3.40;;
15516;SDS011;7860;52.030;5.572;2022-07-11T04:58:32;10.17;;;3.42;;
15516;SDS011;7860;52.030;5.572;2022-07-11T04:59:32;10.06;;;3.47;;
15516;SDS011;7860;52.030;5.572;2022-07-11T05:00:32;7.65;;;3.15;;
15516;SDS011;7860;52.030;5.572;2022-07-11T05:01:32;8.61;;;3.21;;
15516;SDS011;7860;52.030;5.572;2022-07-11T05:02:32;9.51;;;3.55;;
15516;SDS011;7860;52.030;5.572;2022-07-11T05:03:32;9.76;;;3.34;;
15516;SDS011;7860;52.030;5.572;2022-07-11T05:04:32;9.27;;;3.54;;
15516;SDS011;7860;52.030;5.572;2022-07-11T05:05:32;8.64;;;3.63;;
15516;SDS011;7860;52.030;5.572;2022-07-11T05:06:32;11.15;;;3.66;;
15516;SDS011;7860;52.030;5.572;2022-07-11T05:07:32;11.09;;;3.73;;
15516;SDS011;7860;52.030;5.572;2022-07-11T05:08:32;7.49;;;3.84;;
15516;SDS011;7860;52.030;5.572;2022-07-11T05:09:32;9.98;;;4.00;;
15516;SDS011;7860;52.030;5.572;2022-07-11T05:10:32;8.22;;;3.55;;
15516;SDS011;7860;52.030;5.572;2022-07-11T05:11:33;8.76;;;3.79;;
15516;SDS011;7860;52.030;5.572;2022-07-11T05:12:33;7.75;;;3.69;;
15516;SDS011;7860;52.030;5.572;2022-07-11T05:13:33;9.70;;;3.75;;
15516;SDS011;7860;52.030;5.572;2022-07-11T05:14:33;10.46;;;4.19;;
15516;SDS011;7860;52.030;5.572;2022-07-11T05:15:33;10.44;;;3.56;;
15516;SDS011;7860;52.030;5.572;2022-07-11T05:16:33;10.28;;;3.98;;
15516;SDS011;7860;52.030;5.572;2022-07-11T05:17:33;11.26;;;3.45;;
15516;SDS011;7860;52.030;5.572;2022-07-11T05:18:33;8.65;;;4.01;;
15516;SDS011;7860;52.030;5.572;2022-07-11T05:19:33;9.76;;;3.91;;
15516;SDS011;7860;52.030;5.572;2022-07-11T05:20:33;7.47;;;3.69;;
15516;SDS011;7860;52.030;5.572;2022-07-11T05:21:33;7.53;;;3.48;;
15516;SDS011;7860;52.030;5.572;2022-07-11T05:23:18;8.80;;;3.97;;
15516;SDS011;7860;52.030;5.572;2022-07-11T05:24:18;8.94;;;3.72;;
15516;SDS011;7860;52.030;5.572;2022-07-11T05:25:18;7.53;;;3.54;;
15516;SDS011;7860;52.030;5.572;2022-07-11T05:26:18;10.03;;;4.12;;
15516;SDS011;7860;52.030;5.572;2022-07-11T05:27:18;6.89;;;3.50;;
15516;SDS011;7860;52.030;5.572;2022-07-11T05:28:18;6.78;;;3.52;;
15516;SDS011;7860;52.030;5.572;2022-07-11T05:29:18;9.07;;;3.76;;
15516;SDS011;7860;52.030;5.572;2022-07-11T05:30:18;9.73;;;3.89;;
15516;SDS011;7860;52.030;5.572;2022-07-11T05:31:18;10.36;;;3.88;;
15516;SDS011;7860;52.030;5.572;2022-07-11T05:32:18;8.10;;;3.61;;
15516;SDS011;7860;52.030;5.572;2022-07-11T05:33:19;8.52;;;3.83;;
15516;SDS011;7860;52.030;5.572;2022-07-11T05:34:19;7.46;;;3.76;;
15516;SDS011;7860;52.030;5.572;2022-07-11T05:35:19;8.66;;;3.82;;
15516;SDS011;7860;52.030;5.572;2022-07-11T05:36:19;10.61;;;3.82;;
15516;SDS011;7860;52.030;5.572;2022-07-11T05:37:19;8.93;;;3.54;;
15516;SDS011;7860;52.030;5.572;2022-07-11T05:38:19;8.78;;;3.82;;
15516;SDS011;7860;52.030;5.572;2022-07-11T05:39:19;6.89;;;3.34;;
15516;SDS011;7860;52.030;5.572;2022-07-11T05:40:19;8.29;;;3.45;;
15516;SDS011;7860;52.030;5.572;2022-07-11T05:41:19;8.07;;;3.72;;
15516;SDS011;7860;52.030;5.572;2022-07-11T05:42:19;8.27;;;3.80;;
15516;SDS011;7860;52.030;5.572;2022-07-11T05:43:19;7.79;;;3.40;;
15516;SDS011;7860;52.030;5.572;2022-07-11T05:44:19;7.87;;;3.33;;
15516;SDS011;7860;52.030;5.572;2022-07-11T05:45:19;6.83;;;3.37;;
15516;SDS011;7860;52.030;5.572;2022-07-11T05:46:19;8.09;;;3.39;;
15516;SDS011;7860;52.030;5.572;2022-07-11T05:47:19;8.09;;;3.43;;
15516;SDS011;7860;52.030;5.572;2022-07-11T05:48:19;7.96;;;3.87;;
15516;SDS011;7860;52.030;5.572;2022-07-11T05:49:19;8.59;;;3.92;;
15516;SDS011;7860;52.030;5.572;2022-07-11T05:50:19;8.16;;;3.64;;
15516;SDS011;7860;52.030;5.572;2022-07-11T05:51:19;8.20;;;3.78;;
15516;SDS011;7860;52.030;5.572;2022-07-11T05:52:19;8.66;;;3.70;;
15516;SDS011;7860;52.030;5.572;2022-07-11T05:53:20;7.76;;;3.52;;
15516;SDS011;7860;52.030;5.572;2022-07-11T05:54:20;7.57;;;3.29;;
15516;SDS011;7860;52.030;5.572;2022-07-11T05:55:20;7.88;;;3.40;;
15516;SDS011;7860;52.030;5.572;2022-07-11T05:56:20;6.44;;;3.40;;
15516;SDS011;7860;52.030;5.572;2022-07-11T05:57:20;6.47;;;3.34;;
15516;SDS011;7860;52.030;5.572;2022-07-11T05:58:20;7.56;;;3.49;;
15516;SDS011;7860;52.030;5.572;2022-07-11T05:59:20;8.31;;;3.38;;
15516;SDS011;7860;52.030;5.572;2022-07-11T06:00:20;7.99;;;3.43;;
15516;SDS011;7860;52.030;5.572;2022-07-11T06:01:20;7.42;;;3.50;;
15516;SDS011;7860;52.030;5.572;2022-07-11T06:02:20;7.29;;;3.53;;
15516;SDS011;7860;52.030;5.572;2022-07-11T06:03:20;7.44;;;3.33;;
15516;SDS011;7860;52.030;5.572;2022-07-11T06:04:20;7.64;;;3.62;;
15516;SDS011;7860;52.030;5.572;2022-07-11T06:05:20;7.30;;;3.32;;
15516;SDS011;7860;52.030;5.572;2022-07-11T06:06:20;6.76;;;3.31;;
15516;SDS011;7860;52.030;5.572;2022-07-11T06:07:20;6.68;;;3.06;;